Time;durP1;ratioP1;P1;durP2;ratioP2;P2;SDS_P1;SDS_P2;PMS_P1;PMS_P2;Temp;Humidity;BMP_temperature;BMP_pressure;BME280_temperature;BME280_humidity;BME280_pressure;Samples;Min_cycle;Max_cycle;Signal;HPM_P1;HPM_P2
2021/07/27 00:01:37;;;;;;;7.87;4.07;;;;;;;20.21;63.01;100379.03;3559089;40;20134;-77
2021/07/27 00:04:06;;;;;;;8.90;4.72;;;;;;;20.25;62.52;100382.34;3545162;40;20065;-77
2021/07/27 00:06:33;;;;;;;7.88;3.70;;;;;;;20.16;62.16;100379.34;3559067;40;20054;-77
2021/07/27 00:09:07;;;;;;;7.78;3.33;;;;;;;20.22;61.52;100380.72;3562295;40;20053;-76
2021/07/27 00:11:39;;;;;;;6.20;3.50;;;;;;;20.18;62.92;100381.91;3544574;40;20154;-77
2021/07/27 00:14:06;;;;;;;7.07;3.58;;;;;;;20.13;62.68;100371.63;3557893;40;20485;-77
2021/07/27 00:16:33;;;;;;;7.60;4.18;;;;;;;20.17;63.19;100374.88;3558861;40;20486;-76
2021/07/27 00:19:01;;;;;;;8.38;3.63;;;;;;;20.13;63.51;100366.31;3553198;40;20449;-77
2021/07/27 00:21:28;;;;;;;6.78;3.40;;;;;;;20.12;62.31;100366.41;3554085;40;20115;-77
2021/07/27 00:23:54;;;;;;;8.23;4.60;;;;;;;20.12;63.04;100377.00;3560385;40;20135;-77
2021/07/27 00:26:25;;;;;;;6.38;3.15;;;;;;;20.13;62.40;100378.72;3554386;40;20069;-77
2021/07/27 00:28:55;;;;;;;6.18;3.33;;;;;;;20.11;62.53;100370.00;3563821;40;20054;-77
2021/07/27 00:31:22;;;;;;;6.63;3.17;;;;;;;20.07;62.54;100373.81;3548297;40;20060;-77
2021/07/27 00:33:49;;;;;;;7.20;3.72;;;;;;;20.07;63.38;100368.50;3549814;40;20061;-77
2021/07/27 00:36:16;;;;;;;6.83;3.60;;;;;;;20.07;63.33;100368.50;3563800;40;20403;-77
2021/07/27 00:38:46;;;;;;;9.45;4.53;;;;;;;20.05;63.08;100365.97;3550534;40;20063;-76
2021/07/27 00:41:13;;;;;;;6.93;3.45;;;;;;;20.05;63.46;100370.44;3562135;40;20785;-77
2021/07/27 00:43:40;;;;;;;9.00;4.07;;;;;;;20.03;63.39;100372.34;3551394;40;20069;-77
2021/07/27 00:46:08;;;;;;;7.10;3.90;;;;;;;20.01;63.54;100368.94;3564043;40;20686;-77
2021/07/27 00:48:35;;;;;;;7.72;3.63;;;;;;;19.93;63.72;100364.16;3559444;40;20117;-76
2021/07/27 00:51:04;;;;;;;5.18;2.38;;;;;;;19.95;62.62;100368.38;3559543;40;20065;-77
2021/07/27 00:53:34;;;;;;;5.82;3.13;;;;;;;19.96;63.19;100369.25;3556495;40;20190;-77
2021/07/27 00:56:01;;;;;;;7.57;3.72;;;;;;;19.91;63.35;100358.94;3542086;40;20288;-77
2021/07/27 00:58:28;;;;;;;7.00;3.00;;;;;;;19.91;63.33;100366.88;3564034;40;20138;-77
2021/07/27 01:00:57;;;;;;;7.25;3.67;;;;;;;19.89;63.00;100360.84;3554238;40;20077;-77
2021/07/27 01:03:29;;;;;;;8.48;3.60;;;;;;;19.91;63.28;100363.41;3548150;40;20101;-77
2021/07/27 01:05:58;;;;;;;7.35;3.25;;;;;;;19.86;63.39;100350.44;3549499;40;20061;-77
2021/07/27 01:08:28;;;;;;;6.65;3.33;;;;;;;19.85;63.15;100340.81;3555006;40;20085;-77
2021/07/27 01:10:56;;;;;;;9.20;4.30;;;;;;;19.78;64.82;100334.22;3554782;40;20053;-77
2021/07/27 01:13:23;;;;;;;7.38;3.53;;;;;;;19.81;63.68;100347.25;3564447;40;20844;-77
2021/07/27 01:15:50;;;;;;;8.77;4.00;;;;;;;19.78;63.92;100336.88;3554083;40;20101;-77
2021/07/27 01:18:22;;;;;;;7.05;2.67;;;;;;;19.76;64.31;100340.56;3566734;40;20284;-77
2021/07/27 01:37:23;;;;;;;5.93;2.95;;;;;;;19.77;63.50;100345.78;3542463;40;20074;-77
2021/07/27 01:37:50;;;;;;;5.20;2.60;;;;;;;19.63;64.03;100349.34;3558499;40;20667;-76
2021/07/27 01:40:23;;;;;;;4.72;2.08;;;;;;;19.61;63.67;100345.09;3556233;40;20072;-77
2021/07/27 01:42:51;;;;;;;5.95;2.78;;;;;;;19.54;64.36;100333.19;3549078;40;20071;-76
2021/07/27 01:45:18;;;;;;;7.35;3.85;;;;;;;19.51;64.59;100343.97;3563268;40;20054;-77
2021/07/27 01:47:46;;;;;;;5.80;2.75;;;;;;;19.53;64.04;100342.06;3565742;40;20060;-76
2021/07/27 01:50:19;;;;;;;8.07;3.63;;;;;;;19.45;64.13;100334.63;3549685;40;20060;-77
2021/07/27 01:52:49;;;;;;;7.00;2.90;;;;;;;19.42;64.51;100330.38;3549988;40;20061;-76
2021/07/27 01:55:18;;;;;;;7.18;3.58;;;;;;;19.43;65.22;100334.72;3562726;40;20057;-77
2021/07/27 01:57:53;;;;;;;6.65;2.83;;;;;;;19.43;64.04;100337.38;3540276;40;20125;-77
2021/07/27 02:00:20;;;;;;;4.80;2.28;;;;;;;19.38;64.62;100334.19;3548521;40;20057;-77
2021/07/27 02:02:48;;;;;;;5.03;2.70;;;;;;;19.37;64.85;100332.47;3560630;40;20061;-77
2021/07/27 02:05:18;;;;;;;5.43;2.90;;;;;;;19.37;64.99;100337.78;3563603;40;20077;-77
2021/07/27 02:07:56;;;;;;;4.90;2.67;;;;;;;19.34;63.86;100335.31;3549159;40;20050;-77
2021/07/27 02:10:24;;;;;;;7.60;3.15;;;;;;;19.31;64.52;100337.31;3543988;40;20077;-77
2021/07/27 02:13:45;;;;;;;6.05;2.78;;;;;;;19.24;64.57;100326.28;3560206;40;20076;-77
2021/07/27 02:15:47;;;;;;;6.55;3.33;;;;;;;19.27;64.31;100326.09;3549506;40;20057;-76
2021/07/27 02:18:15;;;;;;;8.00;3.80;;;;;;;19.16;65.62;100318.00;3557389;40;20135;-77
2021/07/27 02:20:41;;;;;;;;;;;;;;;19.25;62.24;100333.25;3565217;40;20134;-77
2021/07/27 02:23:08;;;;;;;5.30;2.33;;;;;;;19.20;64.75;100330.06;3562080;40;19953;-77
2021/07/27 02:25:35;;;;;;;7.47;3.40;;;;;;;19.14;65.46;100318.06;3541648;40;20075;-77
2021/07/27 02:28:02;;;;;;;5.93;2.87;;;;;;;19.15;65.50;100321.56;3555969;40;20049;-76
2021/07/27 02:30:34;;;;;;;6.60;2.92;;;;;;;19.16;65.14;100320.66;3542166;40;20723;-76
2021/07/27 02:33:01;;;;;;;7.72;3.75;;;;;;;19.12;66.43;100313.84;3560797;40;20118;-76
2021/07/27 02:35:31;;;;;;;5.75;2.72;;;;;;;19.12;65.43;100321.78;3561319;40;20048;-77
2021/07/27 02:37:59;;;;;;;6.30;2.40;;;;;;;19.04;65.05;100303.72;3551151;40;20055;-77
2021/07/27 02:40:26;;;;;;;5.60;2.42;;;;;;;19.08;65.73;100318.47;3535364;40;21466;-76
2021/07/27 02:42:53;;;;;;;5.57;2.67;;;;;;;19.05;65.48;100315.16;3561786;40;20055;-76
2021/07/27 02:45:48;;;;;;;6.15;3.10;;;;;;;19.09;63.80;100317.53;3562792;40;20089;-76
2021/07/27 02:48:15;;;;;;;5.72;2.33;;;;;;;19.04;65.23;100302.88;3559148;40;20061;-77
2021/07/27 02:50:44;;;;;;;6.80;2.73;;;;;;;19.04;64.94;100309.03;3547704;40;20049;-76
2021/07/27 02:53:36;;;;;;;5.53;2.30;;;;;;;19.04;63.62;100308.19;3562377;40;20307;-76
2021/07/27 02:56:03;;;;;;;5.07;2.30;;;;;;;18.97;65.28;100304.25;3549541;40;20073;-77
2021/07/27 02:58:33;;;;;;;;;;;;;;;19.00;62.59;100306.69;3549263;40;20057;-76
2021/07/27 03:01:05;;;;;;;5.38;2.85;;;;;;;18.93;64.32;100300.94;3564327;40;20272;-77
2021/07/27 03:03:35;;;;;;;6.32;2.83;;;;;;;18.93;64.76;100300.94;3537549;40;20067;-76
2021/07/27 03:06:03;;;;;;;6.15;2.97;;;;;;;18.87;65.07;100296.88;3546892;40;20061;-77
2021/07/27 03:11:16;;;;;;;6.80;3.00;;;;;;;18.82;65.36;100296.31;3542046;40;20137;-76
2021/07/27 03:13:44;;;;;;;6.68;3.05;;;;;;;18.77;65.42;100293.13;3564758;40;20115;-76
2021/07/27 03:16:21;;;;;;;5.95;2.45;;;;;;;18.79;64.55;100304.44;3550618;40;20049;-77
2021/07/27 03:18:51;;;;;;;5.27;2.50;;;;;;;18.75;64.76;100300.28;3540322;40;20331;-76
2021/07/27 03:21:21;;;;;;;8.88;3.20;;;;;;;18.69;65.16;100299.84;3553898;40;20347;-76
2021/07/27 03:23:52;;;;;;;6.85;3.25;;;;;;;18.66;65.88;100291.13;3545501;40;20085;-77
2021/07/27 03:26:25;;;;;;;4.35;2.05;;;;;;;18.65;64.49;100296.50;3547666;40;20413;-76
2021/07/27 03:28:54;;;;;;;6.93;2.83;;;;;;;18.56;66.22;100297.09;3564513;40;20097;-76
2021/07/27 03:31:21;;;;;;;6.80;2.97;;;;;;;18.58;66.39;100303.13;3560785;40;20054;-76
2021/07/27 03:33:48;;;;;;;5.35;2.75;;;;;;;18.57;65.64;100304.06;3564594;40;20095;-76
2021/07/27 03:36:14;;;;;;;6.80;3.17;;;;;;;18.53;66.58;100297.28;3557089;40;20077;-76
2021/07/27 03:38:42;;;;;;;5.83;2.50;;;;;;;18.54;65.88;100299.81;3566617;40;20054;-77
2021/07/27 03:41:11;;;;;;;9.15;3.30;;;;;;;18.55;66.50;100305.94;3561180;40;20058;-77
2021/07/27 03:43:39;;;;;;;5.78;3.15;;;;;;;18.56;66.39;100303.22;3566670;40;20619;-76
2021/07/27 03:46:09;;;;;;;6.65;3.22;;;;;;;18.55;66.59;100303.28;3560717;40;20064;-77
2021/07/27 03:48:37;;;;;;;5.68;2.67;;;;;;;18.56;66.25;100302.38;3551149;40;20508;-76
2021/07/27 03:51:04;;;;;;;;;;;;;;;18.60;63.65;100304.75;3557548;40;20131;-77
2021/07/27 03:53:32;;;;;;;4.22;2.30;;;;;;;18.57;66.38;100298.78;3540649;40;19949;-76
2021/07/27 03:55:58;;;;;;;4.82;2.50;;;;;;;18.57;66.80;100288.22;3563652;40;20037;-76
2021/07/27 03:58:25;;;;;;;10.65;3.13;;;;;;;18.61;66.49;100292.38;3555421;40;20488;-77
2021/07/27 04:00:52;;;;;;;8.90;3.23;;;;;;;18.58;66.73;100284.59;3565079;40;20076;-77
2021/07/27 04:03:21;;;;;;;6.10;2.85;;;;;;;18.69;66.96;100295.38;3561377;40;20100;-77
2021/07/27 04:05:50;;;;;;;6.22;2.67;;;;;;;18.71;66.13;100284.72;3568897;40;20071;-77
2021/07/27 04:08:17;;;;;;;5.70;2.72;;;;;;;18.70;66.94;100277.72;3549453;40;20403;-76
2021/07/27 04:10:45;;;;;;;9.00;4.45;;;;;;;18.71;67.49;100274.16;3555186;40;20764;-77
2021/07/27 04:13:14;;;;;;;6.40;3.22;;;;;;;18.75;66.71;100281.78;3544414;40;20621;-77
2021/07/27 04:16:07;;;;;;;6.65;3.05;;;;;;;18.82;65.35;100283.09;3536284;40;20068;-77
2021/07/27 04:18:34;;;;;;;5.63;2.65;;;;;;;18.79;66.70;100280.63;3563810;40;20089;-77
2021/07/27 04:21:01;;;;;;;6.28;3.30;;;;;;;18.78;66.83;100271.00;3567314;40;20061;-77
2021/07/27 04:23:28;;;;;;;6.50;2.53;;;;;;;18.84;66.38;100270.59;3567785;40;20053;-77
2021/07/27 04:25:56;;;;;;;5.22;2.35;;;;;;;18.87;66.32;100272.22;3563855;40;20569;-76
2021/07/27 04:28:30;;;;;;;4.60;2.50;;;;;;;18.91;65.71;100274.59;3565378;40;20103;-77
2021/07/27 04:30:58;;;;;;;6.70;3.33;;;;;;;18.90;66.45;100267.56;3561330;40;20055;-77
2021/07/27 04:33:30;;;;;;;5.68;3.05;;;;;;;18.96;66.37;100278.69;3537936;40;20113;-76
2021/07/27 04:35:58;;;;;;;7.07;2.65;;;;;;;18.99;66.11;100273.22;3550618;40;20076;-77
2021/07/27 04:38:25;;;;;;;9.02;3.42;;;;;;;18.97;66.23;100269.84;3550459;40;20054;-77
2021/07/27 04:40:53;;;;;;;7.68;3.42;;;;;;;19.03;66.68;100274.72;3552014;40;20410;-77
2021/07/27 04:43:20;;;;;;;6.22;2.67;;;;;;;18.99;66.08;100270.59;3546772;40;20078;-77
2021/07/27 04:45:47;;;;;;;10.77;3.57;;;;;;;18.99;66.64;100266.13;3556682;40;20390;-77
2021/07/27 04:48:14;;;;;;;5.75;2.72;;;;;;;19.05;66.35;100275.47;3566508;40;20659;-77
2021/07/27 04:50:47;;;;;;;4.93;2.27;;;;;;;19.09;65.25;100280.47;3557856;40;20061;-77
2021/07/27 04:53:15;;;;;;;5.90;2.53;;;;;;;19.02;66.32;100268.59;3547226;40;20057;-77
2021/07/27 04:55:42;;;;;;;5.43;2.60;;;;;;;19.07;66.22;100276.25;3552442;40;20479;-77
2021/07/27 04:58:08;;;;;;;6.27;3.50;;;;;;;19.05;66.79;100267.53;3552908;40;20139;-77
2021/07/27 05:00:35;;;;;;;5.80;2.90;;;;;;;19.08;66.62;100272.63;3555365;40;20135;-77
2021/07/27 05:03:03;;;;;;;5.78;2.70;;;;;;;19.09;66.56;100269.03;3553157;40;20399;-77
2021/07/27 05:05:31;;;;;;;6.07;2.83;;;;;;;19.10;66.27;100270.72;3553070;40;20049;-77
2021/07/27 05:07:59;;;;;;;6.22;3.00;;;;;;;19.06;66.59;100269.22;3545698;40;20147;-76
2021/07/27 05:10:27;;;;;;;6.70;3.00;;;;;;;19.11;66.41;100261.84;3551536;40;20089;-77
2021/07/27 05:12:58;;;;;;;7.97;3.85;;;;;;;19.15;66.17;100274.78;3555083;40;20136;-77
2021/07/27 05:15:31;;;;;;;7.75;3.22;;;;;;;19.10;66.13;100255.69;3551229;40;20720;-77
2021/07/27 05:17:59;;;;;;;7.32;2.45;;;;;;;19.11;66.59;100260.06;3561350;40;20063;-77
2021/07/27 05:20:27;;;;;;;6.72;3.10;;;;;;;19.16;67.17;100267.72;3553575;40;20169;-77
2021/07/27 05:22:55;;;;;;;8.88;3.17;;;;;;;19.12;66.59;100256.47;3554911;40;20140;-77
2021/07/27 05:25:24;;;;;;;6.28;2.22;;;;;;;19.16;66.39;100265.06;3540162;40;20135;-77
2021/07/27 05:27:52;;;;;;;6.88;2.88;;;;;;;19.16;66.34;100259.78;3557822;40;20063;-77
2021/07/27 05:30:22;;;;;;;7.50;3.30;;;;;;;19.17;66.52;100262.31;3543217;40;20164;-77
2021/07/27 05:32:49;;;;;;;6.00;3.30;;;;;;;19.21;66.65;100267.38;3556678;40;20041;-77
2021/07/27 05:35:16;;;;;;;5.57;2.57;;;;;;;19.20;66.67;100261.25;3552699;40;20053;-77
2021/07/27 05:37:45;;;;;;;7.45;3.53;;;;;;;19.23;66.46;100261.06;3551242;40;20060;-77
2021/07/27 05:40:12;;;;;;;6.53;3.00;;;;;;;19.24;66.81;100268.03;3555962;40;20135;-77
2021/07/27 05:42:39;;;;;;;5.22;2.50;;;;;;;19.24;66.28;100265.38;3552693;40;20156;-77
2021/07/27 05:45:06;;;;;;;7.47;3.25;;;;;;;19.26;66.68;100262.63;3548536;40;20069;-76
2021/07/27 05:47:34;;;;;;;6.18;2.72;;;;;;;19.25;66.34;100256.50;3553445;40;20046;-77
2021/07/27 05:50:01;;;;;;;7.65;3.50;;;;;;;19.27;66.61;100257.25;3546930;40;20128;-77
2021/07/27 05:52:31;;;;;;;7.45;3.50;;;;;;;19.33;66.87;100274.53;3549220;40;20042;-77
2021/07/27 05:54:59;;;;;;;5.25;2.63;;;;;;;19.32;66.97;100271.03;3543200;40;20061;-77
2021/07/27 05:57:33;;;;;;;13.40;3.70;;;;;;;19.35;66.08;100273.47;3551042;40;20093;-76
2021/07/27 06:00:05;;;;;;;9.38;3.47;;;;;;;19.37;66.31;100273.38;3542900;40;20100;-76
2021/07/27 06:02:34;;;;;;;6.28;2.95;;;;;;;19.34;66.86;100269.13;3542757;40;20046;-77
2021/07/27 06:05:03;;;;;;;5.40;2.53;;;;;;;19.36;66.85;100272.53;3554963;40;20436;-77
2021/07/27 06:07:33;;;;;;;6.95;3.03;;;;;;;19.39;66.58;100277.63;3553332;40;20049;-77
2021/07/27 06:10:07;;;;;;;7.25;2.90;;;;;;;19.38;66.03;100275.94;3547833;40;20116;-76
2021/07/27 06:12:35;;;;;;;5.60;3.25;;;;;;;19.37;66.66;100276.03;3542900;40;20057;-77
2021/07/27 06:15:01;;;;;;;6.75;3.00;;;;;;;19.35;66.75;100284.06;3556821;40;20139;-77
2021/07/27 06:17:29;;;;;;;7.43;3.47;;;;;;;19.36;66.63;100277.84;3554672;40;20587;-76
2021/07/27 06:19:56;;;;;;;7.20;3.53;;;;;;;19.36;67.25;100276.97;3553697;40;20057;-77
2021/07/27 06:22:23;;;;;;;9.67;3.83;;;;;;;19.37;67.21;100278.69;3554005;40;20922;-77
2021/07/27 06:24:54;;;;;;;9.57;3.95;;;;;;;19.45;66.58;100277.19;3559336;40;20301;-77
2021/07/27 06:27:21;;;;;;;11.65;4.63;;;;;;;19.49;67.34;100287.59;3551771;40;20053;-77
2021/07/27 06:29:54;;;;;;;7.78;3.83;;;;;;;19.53;66.37;100278.50;3560094;40;20058;-77
2021/07/27 06:32:21;;;;;;;6.18;3.38;;;;;;;19.54;67.36;100286.34;3554148;40;20400;-77
2021/07/27 06:34:50;;;;;;;7.60;3.70;;;;;;;19.61;66.87;100286.81;3553951;40;20073;-77
2021/07/27 06:37:17;;;;;;;6.03;2.90;;;;;;;19.60;67.00;100279.81;3550851;40;20058;-76
2021/07/27 06:39:44;;;;;;;8.93;3.87;;;;;;;19.61;67.31;100278.88;3545854;40;20098;-77
2021/07/27 06:42:10;;;;;;;7.57;3.10;;;;;;;19.70;66.87;100288.84;3534923;40;20065;-77
2021/07/27 06:44:41;;;;;;;8.15;3.78;;;;;;;19.77;66.65;100282.19;3543522;40;20053;-77
2021/07/27 06:47:08;;;;;;;6.85;2.63;;;;;;;19.76;66.89;100274.34;3538062;40;20058;-76
2021/07/27 06:49:35;;;;;;;8.88;3.80;;;;;;;19.84;66.73;100279.97;3523732;40;20090;-77
2021/07/27 06:52:02;;;;;;;10.60;4.03;;;;;;;19.90;67.00;100283.03;3548687;40;20084;-77
2021/07/27 06:54:29;;;;;;;7.20;3.50;;;;;;;19.93;66.55;100285.50;3542343;40;20277;-77
2021/07/27 06:56:56;;;;;;;7.03;3.63;;;;;;;20.00;66.56;100280.63;3539564;40;20069;-77
2021/07/27 06:59:27;;;;;;;5.15;2.72;;;;;;;20.01;66.26;100268.22;3534561;40;20062;-77
2021/07/27 07:02:03;;;;;;;6.28;3.03;;;;;;;20.11;65.76;100263.97;3537930;40;20054;-77
2021/07/27 07:04:30;;;;;;;8.23;3.70;;;;;;;20.15;66.40;100276.06;3523585;40;20065;-76
2021/07/27 07:06:57;;;;;;;7.85;3.53;;;;;;;20.20;66.59;100274.78;3535707;40;20145;-76
2021/07/27 07:09:24;;;;;;;7.47;3.70;;;;;;;20.28;65.86;100282.22;3537861;40;20804;-77
2021/07/27 07:11:52;;;;;;;8.88;3.70;;;;;;;20.33;65.79;100282.75;3541583;40;20098;-77
2021/07/27 07:14:18;;;;;;;10.18;4.25;;;;;;;20.38;66.16;100277.97;3526227;40;20066;-76
2021/07/27 07:16:48;;;;;;;6.82;3.15;;;;;;;20.49;65.83;100285.19;3543973;40;20054;-77
2021/07/27 07:19:15;;;;;;;8.55;4.60;;;;;;;20.54;66.01;100283.06;3542340;40;20077;-76
2021/07/27 07:21:42;;;;;;;13.48;5.45;;;;;;;20.61;65.36;100286.97;3544030;40;20057;-77
2021/07/27 07:24:09;;;;;;;9.55;4.82;;;;;;;20.66;64.95;100292.81;3535071;40;20419;-77
2021/07/27 07:26:37;;;;;;;7.33;3.40;;;;;;;20.69;64.76;100283.78;3525773;40;20064;-77
2021/07/27 07:29:05;;;;;;;10.40;4.47;;;;;;;20.72;65.17;100278.25;3541855;40;20351;-77
2021/07/27 07:31:32;;;;;;;9.00;4.35;;;;;;;20.73;64.79;100280.81;3529560;40;20074;-76
2021/07/27 07:33:59;;;;;;;8.90;4.43;;;;;;;20.78;65.00;100284.91;3530090;40;20051;-76
2021/07/27 07:36:26;;;;;;;8.10;4.40;;;;;;;20.82;65.06;100287.25;3538574;40;20065;-77
2021/07/27 07:38:53;;;;;;;7.90;4.00;;;;;;;20.87;64.88;100292.22;3537704;40;20534;-77
2021/07/27 07:41:21;;;;;;;7.45;3.78;;;;;;;20.93;64.72;100289.13;3539939;40;20156;-76
2021/07/27 07:43:49;;;;;;;7.82;4.32;;;;;;;20.98;64.78;100282.53;3541956;40;20064;-77
2021/07/27 07:46:16;;;;;;;9.38;5.18;;;;;;;20.95;64.52;100281.91;3539315;40;20849;-77
2021/07/27 07:48:43;;;;;;;9.38;4.78;;;;;;;21.02;64.45;100280.50;3539890;40;20062;-77
2021/07/27 07:51:11;;;;;;;9.80;5.50;;;;;;;21.12;64.27;100285.97;3520183;40;20736;-77
2021/07/27 07:53:38;;;;;;;7.28;3.95;;;;;;;21.16;63.90;100284.81;3523942;40;20062;-77
2021/07/27 07:56:09;;;;;;;11.52;5.40;;;;;;;21.29;63.96;100290.91;3540431;40;20734;-77
2021/07/27 07:58:36;;;;;;;13.50;5.55;;;;;;;21.29;63.79;100285.59;3527903;40;20149;-77
2021/07/27 08:01:07;;;;;;;10.43;4.70;;;;;;;21.40;63.16;100291.00;3542595;40;20057;-77
2021/07/27 08:03:34;;;;;;;12.43;5.47;;;;;;;21.40;63.47;100288.34;3540242;40;20093;-76
2021/07/27 08:06:02;;;;;;;9.98;5.63;;;;;;;21.46;63.29;100289.69;3541236;40;20065;-77
2021/07/27 08:08:29;;;;;;;8.90;4.45;;;;;;;21.45;62.89;100285.34;3541413;40;20050;-77
2021/07/27 08:10:57;;;;;;;8.43;4.63;;;;;;;21.47;62.96;100289.56;3535715;40;20103;-77
2021/07/27 08:13:27;;;;;;;9.45;5.05;;;;;;;21.45;63.19;100286.19;3524682;40;20570;-76
2021/07/27 08:15:54;;;;;;;11.82;5.20;;;;;;;21.47;62.76;100289.56;3535502;40;20050;-77
2021/07/27 08:18:21;;;;;;;10.10;5.28;;;;;;;21.47;63.36;100286.91;3527016;40;20066;-77
2021/07/27 08:20:48;;;;;;;11.05;5.63;;;;;;;21.49;62.69;100287.66;3541520;40;20043;-77
2021/07/27 08:23:15;;;;;;;7.15;2.88;;;;;;;21.59;62.72;100289.59;3525811;40;20070;-77
2021/07/27 08:25:44;;;;;;;7.97;3.67;;;;;;;21.68;63.03;100295.06;3540569;40;20066;-77
2021/07/27 08:28:13;;;;;;;9.48;4.82;;;;;;;21.77;62.88;100293.53;3540202;40;20049;-77
2021/07/27 08:30:40;;;;;;;8.60;4.45;;;;;;;21.81;62.24;100292.34;3528297;40;20190;-77
2021/07/27 08:33:06;;;;;;;9.48;5.13;;;;;;;21.88;62.14;100298.88;3544225;40;20145;-77
2021/07/27 08:35:33;;;;;;;9.10;4.47;;;;;;;21.99;61.40;100298.91;3538850;40;20062;-77
2021/07/27 08:38:01;;;;;;;8.48;4.85;;;;;;;22.07;61.41;100297.47;3539609;40;20070;-77
2021/07/27 08:40:29;;;;;;;8.75;4.72;;;;;;;22.16;61.04;100302.97;3539833;40;20931;-77
2021/07/27 08:42:56;;;;;;;9.50;4.82;;;;;;;;;;3532539;40;20098;-78
2021/07/27 08:45:25;;;;;;;8.82;4.63;;;;;;;22.26;60.97;100287.16;3527261;40;20054;-77
2021/07/27 08:47:52;;;;;;;9.70;5.18;;;;;;;22.33;60.64;100293.66;3542172;40;20058;-77
2021/07/27 08:50:20;;;;;;;8.43;4.57;;;;;;;22.45;61.06;100287.38;3542218;40;20158;-77
2021/07/27 08:52:47;;;;;;;10.07;4.80;;;;;;;22.49;60.30;100288.81;3540733;40;20056;-77
2021/07/27 08:55:14;;;;;;;9.55;4.50;;;;;;;22.64;60.94;100285.94;3527522;40;20150;-77
2021/07/27 08:57:54;;;;;;;9.20;5.47;;;;;;;22.85;60.20;100281.53;3540770;40;20054;-77
2021/07/27 09:00:22;;;;;;;7.95;4.07;;;;;;;22.92;59.90;100285.44;3533892;40;20070;-77
2021/07/27 09:02:49;;;;;;;9.60;5.32;;;;;;;23.08;58.37;100281.53;3540278;40;20054;-77
2021/07/27 09:05:17;;;;;;;8.93;5.00;;;;;;;23.23;59.13;100286.44;3538139;40;20050;-77
2021/07/27 09:07:43;;;;;;;;;;;;;;;23.49;59.68;100284.28;3541128;40;20494;-77
2021/07/27 09:10:18;;;;;;;8.85;4.88;;;;;;;23.59;58.53;100281.69;3538947;40;19951;-77
2021/07/27 09:12:58;;;;;;;9.77;4.97;;;;;;;23.76;58.07;100282.97;3524685;40;20073;-77
2021/07/27 09:15:27;;;;;;;10.07;5.38;;;;;;;23.88;56.45;100278.44;3525714;40;20084;-77
2021/07/27 09:18:03;;;;;;;9.18;5.40;;;;;;;24.08;56.99;100275.75;3538908;40;20046;-77
2021/07/27 09:20:31;;;;;;;9.57;5.00;;;;;;;24.20;56.02;100278.34;3523571;40;20055;-77
2021/07/27 09:22:58;;;;;;;7.10;3.35;;;;;;;24.25;56.93;100270.78;3542765;40;20101;-76
2021/07/27 09:25:28;;;;;;;8.07;4.50;;;;;;;24.48;55.70;100283.00;3535565;40;20073;-77
2021/07/27 09:28:03;;;;;;;7.55;3.88;;;;;;;24.69;55.45;100277.59;3541397;40;20065;-77
2021/07/27 09:30:31;;;;;;;6.50;4.00;;;;;;;24.78;54.54;100274.09;3512656;40;20078;-77
2021/07/27 09:32:58;;;;;;;5.60;2.78;;;;;;;24.89;54.93;100278.50;3539434;40;20050;-77
2021/07/27 09:35:27;;;;;;;6.80;3.55;;;;;;;25.08;53.12;100291.91;3529729;40;20078;-77
2021/07/27 09:38:04;;;;;;;5.35;2.83;;;;;;;25.34;54.57;100281.53;3543794;40;20050;-77
2021/07/27 09:40:32;;;;;;;5.28;2.80;;;;;;;25.48;52.91;100292.78;3533310;40;20063;-77
2021/07/27 09:43:01;;;;;;;6.65;3.28;;;;;;;25.66;50.75;100300.97;3547417;40;20083;-77
2021/07/27 09:45:28;;;;;;;7.32;3.20;;;;;;;25.78;50.84;100291.81;3545816;40;20062;-77
2021/07/27 09:47:56;;;;;;;5.78;2.40;;;;;;;25.92;52.71;100291.38;3548624;40;20101;-76
2021/07/27 09:50:25;;;;;;;4.80;2.53;;;;;;;26.11;50.96;100291.34;3546045;40;20116;-76
2021/07/27 09:52:52;;;;;;;7.40;2.92;;;;;;;26.24;50.00;100282.13;3546446;40;20058;-77
2021/07/27 09:55:22;;;;;;;5.72;2.22;;;;;;;26.40;50.99;100282.34;3548864;40;20054;-78
2021/07/27 09:57:49;;;;;;;6.63;3.05;;;;;;;26.52;49.36;100283.91;3547538;40;20087;-77
2021/07/27 10:00:17;;;;;;;4.20;2.25;;;;;;;26.72;49.89;100283.81;3545844;40;20058;-78
2021/07/27 10:02:47;;;;;;;4.95;2.63;;;;;;;26.92;49.42;100269.31;3550148;40;20092;-77
2021/07/27 10:05:20;;;;;;;5.93;2.60;;;;;;;27.13;49.13;100271.75;3539781;40;20069;-77
2021/07/27 10:07:58;;;;;;;4.57;2.63;;;;;;;27.36;49.75;100267.59;3547893;40;20062;-77
2021/07/27 10:10:46;;;;;;;4.63;2.38;;;;;;;27.52;49.53;100266.88;3542357;40;20171;-77
2021/07/27 10:13:16;;;;;;;5.38;2.67;;;;;;;27.54;46.62;100272.97;3541487;40;20110;-77
2021/07/27 10:15:46;;;;;;;6.07;3.10;;;;;;;27.63;45.97;100269.34;3546136;40;20072;-77
2021/07/27 10:18:14;;;;;;;5.60;2.47;;;;;;;27.63;44.88;100271.19;3548055;40;20082;-77
2021/07/27 10:20:41;;;;;;;6.30;3.03;;;;;;;27.63;45.70;100273.88;3556390;40;20056;-76
2021/07/27 10:23:22;;;;;;;;;;;;;;;27.81;49.11;100276.56;3551933;40;20054;-77
2021/07/27 10:25:53;;;;;;;4.55;1.92;;;;;;;27.75;47.33;100269.13;3540633;40;20000;-77
2021/07/27 10:28:27;;;;;;;3.88;2.08;;;;;;;27.69;45.12;100273.25;3549366;40;20488;-77
2021/07/27 10:31:07;;;;;;;3.83;1.90;;;;;;;27.83;47.13;100274.53;3539069;40;20060;-76
2021/07/27 10:33:34;;;;;;;3.63;1.50;;;;;;;27.74;46.73;100281.72;3539790;40;20402;-77
2021/07/27 10:36:01;;;;;;;;;;;;;;;27.91;48.76;100278.13;3548967;40;20113;-76
2021/07/27 10:38:38;;;;;;;3.53;1.80;;;;;;;27.84;46.10;100278.94;3546881;40;19973;-76
2021/07/27 10:41:13;;;;;;;4.40;2.13;;;;;;;27.77;46.42;100281.38;3532403;40;20097;-77
2021/07/27 10:43:40;;;;;;;2.75;1.52;;;;;;;27.57;45.94;100264.59;3534056;40;20073;-76
2021/07/27 10:46:10;;;;;;;;;;;;;;;27.70;47.52;100279.47;3548577;40;20069;-77
2021/07/27 10:48:39;;;;;;;6.32;2.13;;;;;;;27.47;45.33;100263.00;3535389;40;19956;-76
2021/07/27 10:51:09;;;;;;;4.97;2.30;;;;;;;27.44;46.31;100264.16;3548851;40;20500;-77
2021/07/27 10:53:36;;;;;;;4.00;2.10;;;;;;;27.40;44.79;100268.13;3532949;40;20454;-77
2021/07/27 10:56:05;;;;;;;;;;;;;;;27.50;47.83;100271.59;3541683;40;20050;-77
2021/07/27 10:58:34;;;;;;;4.55;2.33;;;;;;;27.33;45.56;100254.50;3535338;40;19944;-77
2021/07/27 11:01:09;;;;;;;4.15;2.30;;;;;;;27.37;46.05;100268.44;3538899;40;20074;-77
2021/07/27 11:03:38;;;;;;;5.18;2.63;;;;;;;27.25;44.61;100264.31;3524745;40;20135;-77
2021/07/27 11:06:05;;;;;;;4.68;2.70;;;;;;;27.25;45.57;100256.28;3533856;40;20069;-77
2021/07/27 11:08:32;;;;;;;5.25;2.45;;;;;;;27.33;45.00;100261.72;3541949;40;20179;-77
2021/07/27 11:11:06;;;;;;;;;;;;;;;27.55;47.62;100266.59;3549608;40;20147;-77
2021/07/27 11:13:33;;;;;;;3.65;2.03;;;;;;;27.57;45.08;100261.91;3521986;40;19941;-77
2021/07/27 11:16:00;;;;;;;4.00;2.10;;;;;;;27.71;44.46;100260.53;3547532;40;20053;-77
2021/07/27 11:18:28;;;;;;;3.67;1.88;;;;;;;27.87;43.90;100265.19;3546794;40;20346;-76
2021/07/27 11:20:59;;;;;;;5.32;2.20;;;;;;;28.03;43.88;100264.44;3525165;40;20069;-77
2021/07/27 11:23:33;;;;;;;5.10;2.50;;;;;;;28.12;44.34;100269.72;3545616;40;20135;-76
2021/07/27 11:26:00;;;;;;;3.83;2.17;;;;;;;28.12;42.19;100269.72;3546816;40;20668;-77
2021/07/27 11:28:38;;;;;;;5.78;2.65;;;;;;;28.28;43.88;100273.50;3548050;40;20062;-77
2021/07/27 11:31:20;;;;;;;4.03;1.88;;;;;;;28.30;43.90;100275.03;3532254;40;20756;-76
2021/07/27 11:33:52;;;;;;;6.75;2.25;;;;;;;28.24;42.25;100272.16;3534970;40;21882;-77
2021/07/27 11:36:23;;;;;;;3.40;1.90;;;;;;;28.17;42.18;100278.13;3548715;40;21886;-79
2021/07/27 11:38:51;;;;;;;4.10;2.15;;;;;;;28.05;41.23;100265.16;3537471;40;20430;-77
2021/07/27 11:41:19;;;;;;;2.58;1.23;;;;;;;27.98;43.10;100267.63;3546080;40;20058;-76
2021/07/27 11:43:49;;;;;;;3.95;1.70;;;;;;;27.96;41.51;100264.25;3547970;40;20048;-77
2021/07/27 11:46:17;;;;;;;4.40;2.10;;;;;;;27.89;42.05;100268.56;3533172;40;20066;-76
2021/07/27 11:48:52;;;;;;;3.05;1.60;;;;;;;27.88;43.03;100262.38;3547540;40;20057;-77
2021/07/27 11:51:35;;;;;;;2.95;1.55;;;;;;;27.83;43.05;100264.69;3538411;40;20058;-77
2021/07/27 11:54:02;;;;;;;3.55;1.80;;;;;;;27.73;42.71;100263.06;3541650;40;20177;-77